Time,TemperatureF,DewpointF,PressureIn,WindDirection,WindDirectionDegrees,WindSpeedMPH,WindSpeedGustMPH,Humidity,HourlyPrecipIn,Conditions,Clouds,dailyrainin,SoftwareType,DateUTC
2013-02-01 00:13:00,50.3,35.0,30.30,SSW,197,0.0,1.0,56,0.00,,,0.00,weatherlink.com 1.10,2013-02-01 06:13:00,
2013-02-01 00:28:00,49.1,36.0,30.29,SSW,197,0.0,1.0,61,0.00,,,0.00,weatherlink.com 1.10,2013-02-01 06:28:00,
2013-02-01 00:43:00,48.5,37.0,30.29,SSW,197,0.0,0.0,64,0.00,,,0.00,weatherlink.com 1.10,2013-02-01 06:43:00,
2013-02-01 00:58:00,48.1,37.0,30.29,SSW,197,0.0,0.0,65,0.00,,,0.00,weatherlink.com 1.10,2013-02-01 06:58:00,
2013-02-01 01:13:00,48.0,37.0,30.30,SSW,197,0.0,0.0,66,0.00,,,0.00,weatherlink.com 1.10,2013-02-01 07:13:00,
2013-02-01 01:28:00,47.5,39.0,30.29,SSW,197,0.0,0.0,72,0.00,,,0.00,weatherlink.com 1.10,2013-02-01 07:28:00,
2013-02-01 01:43:00,45.6,37.0,30.29,SSW,197,0.0,0.0,72,0.00,,,0.00,weatherlink.com 1.10,2013-02-01 07:43:00,
2013-02-01 01:58:00,45.1,36.0,30.29,SSW,197,0.0,0.0,70,0.00,,,0.00,weatherlink.com 1.10,2013-02-01 07:58:00,
2013-02-01 02:13:00,44.8,38.0,30.30,SSW,197,0.0,0.0,76,0.00,,,0.00,weatherlink.com 1.10,2013-02-01 08:13:00,
2013-02-01 02:28:00,44.1,37.0,30.30,SSW,197,0.0,0.0,76,0.00,,,0.00,weatherlink.com 1.10,2013-02-01 08:28:00,
2013-02-01 02:43:00,43.9,38.0,30.30,SSW,197,0.0,0.0,80,0.00,,,0.00,weatherlink.com 1.10,2013-02-01 08:43:00,
2013-02-01 02:59:00,43.4,38.0,30.30,SSW,197,0.0,0.0,80,0.00,,,0.00,weatherlink.com 1.10,2013-02-01 08:59:00,
2013-02-01 03:13:00,42.9,37.0,30.30,SSW,197,0.0,0.0,80,0.00,,,0.00,weatherlink.com 1.10,2013-02-01 09:13:00,
2013-02-01 03:28:00,42.9,38.0,30.31,SSW,197,0.0,0.0,83,0.00,,,0.00,weatherlink.com 1.10,2013-02-01 09:28:00,
2013-02-01 03:44:00,43.3,38.0,30.33,NW,312,0.0,5.0,80,0.00,,,0.00,weatherlink.com 1.10,2013-02-01 09:44:00,
2013-02-01 03:58:00,42.7,37.0,30.33,NW,312,0.0,1.0,80,0.00,,,0.00,weatherlink.com 1.10,2013-02-01 09:58:00,
2013-02-01 04:13:00,43.2,37.0,30.34,NW,312,0.0,1.0,78,0.00,,,0.00,weatherlink.com 1.10,2013-02-01 10:13:00,
2013-02-01 04:29:00,43.7,37.0,30.34,NW,312,0.0,0.0,78,0.00,,,0.00,weatherlink.com 1.10,2013-02-01 10:29:00,
2013-02-01 04:44:00,43.0,37.0,30.33,NW,312,0.0,0.0,79,0.00,,,0.00,weatherlink.com 1.10,2013-02-01 10:44:00,
2013-02-01 04:58:00,42.5,36.0,30.33,NW,312,0.0,0.0,79,0.00,,,0.00,weatherlink.com 1.10,2013-02-01 10:58:00,
2013-02-01 05:13:00,42.7,37.0,30.34,NW,312,0.0,0.0,81,0.00,,,0.00,weatherlink.com 1.10,2013-02-01 11:13:00,
2013-02-01 05:29:00,42.6,37.0,30.33,NW,312,0.0,0.0,81,0.00,,,0.00,weatherlink.com 1.10,2013-02-01 11:29:00,
2013-02-01 05:43:00,42.6,38.0,30.34,NW,312,0.0,0.0,82,0.00,,,0.00,weatherlink.com 1.10,2013-02-01 11:43:00,
2013-02-01 05:59:00,42.6,38.0,30.34,NW,312,0.0,0.0,84,0.00,,,0.00,weatherlink.com 1.10,2013-02-01 11:59:00,
2013-02-01 06:14:00,42.4,38.0,30.35,NW,312,0.0,0.0,84,0.00,,,0.00,weatherlink.com 1.10,2013-02-01 12:14:00,
2013-02-01 06:29:00,42.0,37.0,30.35,NW,312,0.0,0.0,83,0.00,,,0.00,weatherlink.com 1.10,2013-02-01 12:29:00,
2013-02-01 06:44:00,42.0,37.0,30.34,NW,312,0.0,0.0,83,0.00,,,0.00,weatherlink.com 1.10,2013-02-01 12:44:00,
2013-02-01 06:59:00,42.0,38.0,30.35,NW,312,0.0,0.0,84,0.00,,,0.00,weatherlink.com 1.10,2013-02-01 12:59:00,
2013-02-01 07:14:00,41.8,38.0,30.35,NW,312,0.0,0.0,85,0.00,,,0.00,weatherlink.com 1.10,2013-02-01 13:14:00,
2013-02-01 07:29:00,41.7,38.0,30.35,NW,312,0.0,0.0,86,0.00,,,0.00,weatherlink.com 1.10,2013-02-01 13:29:00,
2013-02-01 07:44:00,41.6,38.0,30.35,NW,312,0.0,0.0,86,0.00,,,0.00,weatherlink.com 1.10,2013-02-01 13:44:00,
2013-02-01 07:59:00,41.6,38.0,30.36,NW,312,0.0,1.0,87,0.00,,,0.00,weatherlink.com 1.10,2013-02-01 13:59:00,
2013-02-01 08:14:00,41.7,38.0,30.36,NW,312,0.0,0.0,87,0.00,,,0.00,weatherlink.com 1.10,2013-02-01 14:14:00,
2013-02-01 08:29:00,43.4,40.0,30.37,NW,312,0.0,0.0,86,0.00,,,0.00,weatherlink.com 1.10,2013-02-01 14:29:00,
2013-02-01 08:44:00,45.9,41.0,30.37,NW,312,0.0,0.0,83,0.00,,,0.00,weatherlink.com 1.10,2013-02-01 14:44:00,
2013-02-01 08:59:00,49.2,42.0,30.38,NW,312,0.0,0.0,76,0.00,,,0.00,weatherlink.com 1.10,2013-02-01 14:59:00,
2013-02-01 09:14:00,51.4,43.0,30.38,SSW,209,0.0,4.0,72,0.00,,,0.00,weatherlink.com 1.10,2013-02-01 15:14:00,
2013-02-01 09:29:00,52.6,41.0,30.38,WSW,244,0.0,2.0,65,0.00,,,0.00,weatherlink.com 1.10,2013-02-01 15:29:00,
2013-02-01 09:44:00,52.9,40.0,30.38,NW,312,0.0,4.0,63,0.00,,,0.00,weatherlink.com 1.10,2013-02-01 15:44:00,
2013-02-01 09:59:00,54.2,42.0,30.38,NW,319,2.0,4.0,63,0.00,,,0.00,weatherlink.com 1.10,2013-02-01 15:59:00,
2013-02-01 10:14:00,56.8,41.0,30.38,East,84,0.0,4.0,57,0.00,,,0.00,weatherlink.com 1.10,2013-02-01 16:14:00,
2013-02-01 10:29:00,56.9,41.0,30.38,NW,305,1.0,5.0,55,0.00,,,0.00,weatherlink.com 1.10,2013-02-01 16:29:00,
2013-02-01 10:44:00,57.6,41.0,30.37,North,5,0.0,3.0,55,0.00,,,0.00,weatherlink.com 1.10,2013-02-01 16:44:00,
2013-02-01 10:59:00,58.9,42.0,30.38,East,84,0.0,3.0,54,0.00,,,0.00,weatherlink.com 1.10,2013-02-01 16:59:00,
2013-02-01 11:14:00,59.7,41.0,30.37,SW,232,1.0,4.0,51,0.00,,,0.00,weatherlink.com 1.10,2013-02-01 17:14:00,
2013-02-01 11:29:00,60.7,42.0,30.37,NNW,345,2.0,4.0,50,0.00,,,0.00,weatherlink.com 1.10,2013-02-01 17:29:00,
2013-02-01 11:44:00,61.6,42.0,30.36,SSE,154,0.0,3.0,49,0.00,,,0.00,weatherlink.com 1.10,2013-02-01 17:44:00,
2013-02-01 12:00:00,62.2,42.0,30.35,East,82,0.0,4.0,48,0.00,,,0.00,weatherlink.com 1.10,2013-02-01 18:00:00,
2013-02-01 12:14:00,62.9,43.0,30.34,South,180,2.0,5.0,48,0.00,,,0.00,weatherlink.com 1.10,2013-02-01 18:14:00,
2013-02-01 12:30:00,62.9,42.0,30.33,WNW,290,0.0,5.0,47,0.00,,,0.00,weatherlink.com 1.10,2013-02-01 18:30:00,
2013-02-01 12:44:00,63.5,43.0,30.33,WSW,256,0.0,6.0,47,0.00,,,0.00,weatherlink.com 1.10,2013-02-01 18:44:00,
2013-02-01 12:59:00,63.8,42.0,30.32,SSE,155,0.0,6.0,45,0.00,,,0.00,weatherlink.com 1.10,2013-02-01 18:59:00,
2013-02-01 13:14:00,64.7,43.0,30.31,ESE,103,0.0,6.0,46,0.00,,,0.00,weatherlink.com 1.10,2013-02-01 19:14:00,
2013-02-01 13:30:00,65.0,42.0,30.30,South,170,0.0,5.0,43,0.00,,,0.00,weatherlink.com 1.10,2013-02-01 19:30:00,
2013-02-01 13:44:00,65.9,42.0,30.30,ESE,113,0.0,5.0,42,0.00,,,0.00,weatherlink.com 1.10,2013-02-01 19:44:00,
2013-02-01 14:00:00,66.3,41.0,30.29,SSE,151,3.0,7.0,40,0.00,,,0.00,weatherlink.com 1.10,2013-02-01 20:00:00,
2013-02-01 14:15:00,66.3,40.0,30.28,South,171,0.0,4.0,39,0.00,,,0.00,weatherlink.com 1.10,2013-02-01 20:15:00,
2013-02-01 14:30:00,67.7,42.0,30.28,South,181,2.0,3.0,39,0.00,,,0.00,weatherlink.com 1.10,2013-02-01 20:30:00,
2013-02-01 14:45:00,67.8,41.0,30.28,SSE,157,1.0,4.0,38,0.00,,,0.00,weatherlink.com 1.10,2013-02-01 20:45:00,
2013-02-01 15:00:00,67.8,41.0,30.27,South,170,1.0,3.0,38,0.00,,,0.00,weatherlink.com 1.10,2013-02-01 21:00:00,
2013-02-01 15:15:00,67.2,40.0,30.27,South,169,3.0,3.0,37,0.00,,,0.00,weatherlink.com 1.10,2013-02-01 21:15:00,
2013-02-01 15:30:00,68.0,41.0,30.26,SSE,151,2.0,4.0,37,0.00,,,0.00,weatherlink.com 1.10,2013-02-01 21:30:00,
2013-02-01 15:45:00,67.8,40.0,30.26,West,259,1.0,4.0,36,0.00,,,0.00,weatherlink.com 1.10,2013-02-01 21:45:00,
2013-02-01 16:00:00,67.6,41.0,30.26,SE,143,0.0,5.0,38,0.00,,,0.00,weatherlink.com 1.10,2013-02-01 22:00:00,
2013-02-01 16:15:00,66.9,40.0,30.25,SE,145,0.0,4.0,38,0.00,,,0.00,weatherlink.com 1.10,2013-02-01 22:15:00,
2013-02-01 16:30:00,66.0,40.0,30.25,SSE,157,0.0,3.0,38,0.00,,,0.00,weatherlink.com 1.10,2013-02-01 22:30:00,
2013-02-01 16:45:00,65.5,40.0,30.24,SSE,155,0.0,2.0,40,0.00,,,0.00,weatherlink.com 1.10,2013-02-01 22:45:00,
2013-02-01 17:00:00,65.0,41.0,30.24,SE,145,0.0,2.0,41,0.00,,,0.00,weatherlink.com 1.10,2013-02-01 23:00:00,
2013-02-01 17:15:00,64.6,41.0,30.24,SE,145,0.0,1.0,42,0.00,,,0.00,weatherlink.com 1.10,2013-02-01 23:15:00,
2013-02-01 17:30:00,63.5,41.0,30.24,SE,145,0.0,1.0,44,0.00,,,0.00,weatherlink.com 1.10,2013-02-01 23:30:00,
2013-02-01 17:45:00,62.3,41.0,30.24,SE,145,0.0,0.0,46,0.00,,,0.00,weatherlink.com 1.10,2013-02-01 23:45:00,
2013-02-01 18:00:00,60.8,41.0,30.23,SE,145,0.0,0.0,49,0.00,,,0.00,weatherlink.com 1.10,2013-02-02 00:00:00,
2013-02-01 18:15:00,59.1,41.0,30.23,SE,145,0.0,0.0,52,0.00,,,0.00,weatherlink.com 1.10,2013-02-02 00:15:00,
2013-02-01 18:30:00,57.8,43.0,30.23,SE,145,0.0,0.0,59,0.00,,,0.00,weatherlink.com 1.10,2013-02-02 00:30:00,
2013-02-01 18:45:00,57.1,43.0,30.23,SE,140,0.0,3.0,60,0.00,,,0.00,weatherlink.com 1.10,2013-02-02 00:45:00,
2013-02-01 19:00:00,56.6,43.0,30.24,SE,142,0.0,1.0,61,0.00,,,0.00,weatherlink.com 1.10,2013-02-02 01:00:00,
2013-02-01 19:15:00,55.4,43.0,30.24,SE,142,0.0,0.0,63,0.00,,,0.00,weatherlink.com 1.10,2013-02-02 01:15:00,
2013-02-01 19:30:00,54.8,43.0,30.24,SE,142,0.0,1.0,64,0.00,,,0.00,weatherlink.com 1.10,2013-02-02 01:30:00,
2013-02-01 19:45:00,54.2,42.0,30.25,SE,142,0.0,1.0,64,0.00,,,0.00,weatherlink.com 1.10,2013-02-02 01:45:00,
2013-02-01 20:00:00,53.3,43.0,30.24,SE,142,0.0,1.0,68,0.00,,,0.00,weatherlink.com 1.10,2013-02-02 02:00:00,
2013-02-01 20:15:00,52.2,43.0,30.25,SE,142,0.0,0.0,71,0.00,,,0.00,weatherlink.com 1.10,2013-02-02 02:15:00,
2013-02-01 20:30:00,51.0,42.0,30.25,SE,142,0.0,1.0,72,0.00,,,0.00,weatherlink.com 1.10,2013-02-02 02:30:00,
2013-02-01 20:45:00,51.3,43.0,30.25,SE,142,0.0,1.0,74,0.00,,,0.00,weatherlink.com 1.10,2013-02-02 02:45:00,
2013-02-01 21:00:00,53.5,44.0,30.25,SE,146,1.0,2.0,71,0.00,,,0.00,weatherlink.com 1.10,2013-02-02 03:00:00,
2013-02-01 21:15:00,55.3,44.0,30.25,SSE,155,0.0,3.0,67,0.00,,,0.00,weatherlink.com 1.10,2013-02-02 03:15:00,
2013-02-01 21:30:00,55.5,44.0,30.25,WSW,251,0.0,2.0,65,0.00,,,0.00,weatherlink.com 1.10,2013-02-02 03:30:00,
2013-02-01 21:45:00,55.0,44.0,30.26,South,170,0.0,3.0,66,0.00,,,0.00,weatherlink.com 1.10,2013-02-02 03:45:00,
2013-02-01 22:00:00,54.8,43.0,30.26,SSE,151,0.0,5.0,65,0.00,,,0.00,weatherlink.com 1.10,2013-02-02 04:00:00,
2013-02-01 22:15:00,54.3,43.0,30.27,SSE,154,0.0,2.0,67,0.00,,,0.00,weatherlink.com 1.10,2013-02-02 04:15:00,
2013-02-01 22:30:00,53.8,43.0,30.27,South,180,0.0,1.0,68,0.00,,,0.00,weatherlink.com 1.10,2013-02-02 04:30:00,
2013-02-01 22:45:00,52.6,44.0,30.27,South,181,0.0,1.0,72,0.00,,,0.00,weatherlink.com 1.10,2013-02-02 04:45:00,
2013-02-01 23:00:00,52.6,44.0,30.27,South,182,0.0,1.0,73,0.00,,,0.00,weatherlink.com 1.10,2013-02-02 05:00:00,
2013-02-01 23:15:00,51.8,44.0,30.27,South,182,0.0,1.0,74,0.00,,,0.00,weatherlink.com 1.10,2013-02-02 05:15:00,
2013-02-01 23:30:00,50.9,44.0,30.27,South,182,0.0,1.0,76,0.00,,,0.00,weatherlink.com 1.10,2013-02-02 05:30:00,
2013-02-01 23:45:00,49.9,43.0,30.27,South,182,0.0,0.0,78,0.00,,,0.00,weatherlink.com 1.10,2013-02-02 05:45:00,